sensor_id;sensor_type;location;lat;lon;timestamp;temperature;humidity
32877;DHT22;19226;51.600;8.034;2022-12-17T00:01:44;-5.10;99.90
32877;DHT22;19226;51.600;8.034;2022-12-17T00:04:32;-5.20;99.90
32877;DHT22;19226;51.600;8.034;2022-12-17T00:07:18;-5.10;99.90
32877;DHT22;19226;51.600;8.034;2022-12-17T00:10:03;-5.20;99.90
32877;DHT22;19226;51.600;8.034;2022-12-17T00:12:47;-5.20;99.90
32877;DHT22;19226;51.600;8.034;2022-12-17T00:15:32;-5.30;99.90
32877;DHT22;19226;51.600;8.034;2022-12-17T00:18:16;-5.30;99.90
32877;DHT22;19226;51.600;8.034;2022-12-17T00:21:06;-5.40;99.90
32877;DHT22;19226;51.600;8.034;2022-12-17T00:23:51;-5.40;99.90
32877;DHT22;19226;51.600;8.034;2022-12-17T00:26:46;-5.40;99.90
32877;DHT22;19226;51.600;8.034;2022-12-17T00:29:32;-5.40;99.90
32877;DHT22;19226;51.600;8.034;2022-12-17T00:32:39;-5.40;99.90
32877;DHT22;19226;51.600;8.034;2022-12-17T00:35:24;-5.50;99.90
32877;DHT22;19226;51.600;8.034;2022-12-17T00:38:17;-5.50;99.90
32877;DHT22;19226;51.600;8.034;2022-12-17T00:41:04;-5.50;99.90
32877;DHT22;19226;51.600;8.034;2022-12-17T00:43:49;-5.50;99.90
32877;DHT22;19226;51.600;8.034;2022-12-17T00:46:37;-5.50;99.90
32877;DHT22;19226;51.600;8.034;2022-12-17T00:49:24;-5.50;99.90
32877;DHT22;19226;51.600;8.034;2022-12-17T00:52:10;-5.50;99.90
32877;DHT22;19226;51.600;8.034;2022-12-17T00:54:57;-5.50;99.90
32877;DHT22;19226;51.600;8.034;2022-12-17T00:57:41;-5.60;99.90
32877;DHT22;19226;51.600;8.034;2022-12-17T01:00:26;-5.70;99.90
32877;DHT22;19226;51.600;8.034;2022-12-17T01:03:12;-5.70;99.90
32877;DHT22;19226;51.600;8.034;2022-12-17T01:06:01;-5.70;99.90
32877;DHT22;19226;51.600;8.034;2022-12-17T01:09:12;-5.70;99.90
32877;DHT22;19226;51.600;8.034;2022-12-17T01:11:56;-5.70;99.90
32877;DHT22;19226;51.600;8.034;2022-12-17T01:14:42;-5.70;99.90
32877;DHT22;19226;51.600;8.034;2022-12-17T01:17:28;-5.80;99.90
32877;DHT22;19226;51.600;8.034;2022-12-17T01:20:12;-5.90;99.90
32877;DHT22;19226;51.600;8.034;2022-12-17T01:22:58;-5.90;99.90
32877;DHT22;19226;51.600;8.034;2022-12-17T01:25:52;-5.90;99.90
32877;DHT22;19226;51.600;8.034;2022-12-17T01:28:38;-6.00;99.90
32877;DHT22;19226;51.600;8.034;2022-12-17T01:31:23;-6.00;99.90
32877;DHT22;19226;51.600;8.034;2022-12-17T01:34:08;-6.10;99.90
32877;DHT22;19226;51.600;8.034;2022-12-17T01:36:53;-6.10;99.90
32877;DHT22;19226;51.600;8.034;2022-12-17T01:39:40;-6.10;99.90
32877;DHT22;19226;51.600;8.034;2022-12-17T01:42:39;-6.10;99.90
32877;DHT22;19226;51.600;8.034;2022-12-17T01:45:25;-6.20;99.90
32877;DHT22;19226;51.600;8.034;2022-12-17T01:48:14;-6.30;99.90
32877;DHT22;19226;51.600;8.034;2022-12-17T01:51:01;-6.40;99.90
32877;DHT22;19226;51.600;8.034;2022-12-17T01:53:47;-6.40;99.90
32877;DHT22;19226;51.600;8.034;2022-12-17T01:56:58;-6.50;99.90
32877;DHT22;19226;51.600;8.034;2022-12-17T02:02:47;-6.60;99.90
32877;DHT22;19226;51.600;8.034;2022-12-17T02:05:55;-6.50;99.90
32877;DHT22;19226;51.600;8.034;2022-12-17T02:11:47;-6.50;99.90
32877;DHT22;19226;51.600;8.034;2022-12-17T02:15:02;-6.40;99.90
32877;DHT22;19226;51.600;8.034;2022-12-17T02:18:17;-6.40;99.90
32877;DHT22;19226;51.600;8.034;2022-12-17T02:21:02;-6.40;99.90
32877;DHT22;19226;51.600;8.034;2022-12-17T02:24:11;-6.30;99.90
32877;DHT22;19226;51.600;8.034;2022-12-17T02:26:59;-6.30;99.90
32877;DHT22;19226;51.600;8.034;2022-12-17T02:29:50;-6.30;99.90
32877;DHT22;19226;51.600;8.034;2022-12-17T02:32:40;-6.30;99.90
32877;DHT22;19226;51.600;8.034;2022-12-17T02:36:05;-6.30;99.90
32877;DHT22;19226;51.600;8.034;2022-12-17T02:38:51;-6.30;99.90
32877;DHT22;19226;51.600;8.034;2022-12-17T02:42:12;-6.30;99.90
32877;DHT22;19226;51.600;8.034;2022-12-17T02:44:51;-6.30;99.90
32877;DHT22;19226;51.600;8.034;2022-12-17T02:47:36;-6.30;99.90
32877;DHT22;19226;51.600;8.034;2022-12-17T02:50:46;-6.30;99.90
32877;DHT22;19226;51.600;8.034;2022-12-17T03:08:29;-6.30;99.90
32877;DHT22;19226;51.600;8.034;2022-12-17T03:11:16;-6.50;99.90
32877;DHT22;19226;51.600;8.034;2022-12-17T03:14:18;-6.60;99.90
32877;DHT22;19226;51.600;8.034;2022-12-17T03:17:31;-6.70;99.90
32877;DHT22;19226;51.600;8.034;2022-12-17T03:20:43;-6.70;99.90
32877;DHT22;19226;51.600;8.034;2022-12-17T03:32:46;-6.80;99.90
32877;DHT22;19226;51.600;8.034;2022-12-17T03:35:56;-6.80;99.90
32877;DHT22;19226;51.600;8.034;2022-12-17T03:38:41;-6.80;99.90
32877;DHT22;19226;51.600;8.034;2022-12-17T03:41:50;-6.70;99.90
32877;DHT22;19226;51.600;8.034;2022-12-17T03:44:35;-6.70;99.90
32877;DHT22;19226;51.600;8.034;2022-12-17T03:47:44;-6.60;99.90
32877;DHT22;19226;51.600;8.034;2022-12-17T03:50:31;-6.70;99.90
32877;DHT22;19226;51.600;8.034;2022-12-17T03:53:43;-6.70;99.90
32877;DHT22;19226;51.600;8.034;2022-12-17T03:56:28;-6.60;99.90
32877;DHT22;19226;51.600;8.034;2022-12-17T03:59:17;-6.60;99.90
32877;DHT22;19226;51.600;8.034;2022-12-17T04:02:02;-6.50;99.90
32877;DHT22;19226;51.600;8.034;2022-12-17T04:04:46;-6.40;99.90
32877;DHT22;19226;51.600;8.034;2022-12-17T04:07:36;-6.30;99.90
32877;DHT22;19226;51.600;8.034;2022-12-17T04:10:20;-6.30;99.90
32877;DHT22;19226;51.600;8.034;2022-12-17T04:13:24;-6.20;99.90
32877;DHT22;19226;51.600;8.034;2022-12-17T04:16:14;-6.20;99.90
32877;DHT22;19226;51.600;8.034;2022-12-17T04:19:03;-6.10;99.90
32877;DHT22;19226;51.600;8.034;2022-12-17T04:22:14;-6.10;99.90
32877;DHT22;19226;51.600;8.034;2022-12-17T04:28:29;-6.20;99.90
32877;DHT22;19226;51.600;8.034;2022-12-17T04:31:14;-6.20;99.90
32877;DHT22;19226;51.600;8.034;2022-12-17T04:34:01;-6.20;99.90
32877;DHT22;19226;51.600;8.034;2022-12-17T04:36:49;-6.20;99.90
32877;DHT22;19226;51.600;8.034;2022-12-17T04:39:33;-6.10;99.90
32877;DHT22;19226;51.600;8.034;2022-12-17T04:42:20;-6.10;99.90
32877;DHT22;19226;51.600;8.034;2022-12-17T04:45:06;-6.10;99.90
32877;DHT22;19226;51.600;8.034;2022-12-17T04:47:50;-6.10;99.90
32877;DHT22;19226;51.600;8.034;2022-12-17T04:50:44;-6.10;99.90
32877;DHT22;19226;51.600;8.034;2022-12-17T04:53:31;-6.10;99.90
32877;DHT22;19226;51.600;8.034;2022-12-17T04:56:19;-6.10;99.90
32877;DHT22;19226;51.600;8.034;2022-12-17T04:59:08;-6.20;99.90
32877;DHT22;19226;51.600;8.034;2022-12-17T05:01:53;-6.20;99.90
32877;DHT22;19226;51.600;8.034;2022-12-17T05:04:40;-6.20;99.90
32877;DHT22;19226;51.600;8.034;2022-12-17T05:07:24;-6.20;99.90
32877;DHT22;19226;51.600;8.034;2022-12-17T05:10:16;-6.30;99.90
32877;DHT22;19226;51.600;8.034;2022-12-17T05:13:01;-6.30;99.90
32877;DHT22;19226;51.600;8.034;2022-12-17T05:15:48;-6.30;99.90
32877;DHT22;19226;51.600;8.034;2022-12-17T05:18:39;-6.30;99.90
32877;DHT22;19226;51.600;8.034;2022-12-17T05:21:41;-6.30;99.90
32877;DHT22;19226;51.600;8.034;2022-12-17T05:24:26;-6.30;99.90
32877;DHT22;19226;51.600;8.034;2022-12-17T05:27:13;-6.30;99.90
32877;DHT22;19226;51.600;8.034;2022-12-17T05:33:02;-6.40;99.90
32877;DHT22;19226;51.600;8.034;2022-12-17T05:35:48;-6.40;99.90
32877;DHT22;19226;51.600;8.034;2022-12-17T05:38:35;-6.50;99.90
32877;DHT22;19226;51.600;8.034;2022-12-17T05:41:22;-6.50;99.90
32877;DHT22;19226;51.600;8.034;2022-12-17T05:44:07;-6.60;99.90
32877;DHT22;19226;51.600;8.034;2022-12-17T05:46:51;-6.60;99.90
32877;DHT22;19226;51.600;8.034;2022-12-17T05:49:37;-6.60;99.90
32877;DHT22;19226;51.600;8.034;2022-12-17T05:52:22;-6.60;99.90
32877;DHT22;19226;51.600;8.034;2022-12-17T05:55:17;-6.60;99.90
32877;DHT22;19226;51.600;8.034;2022-12-17T05:58:04;-6.60;99.90
32877;DHT22;19226;51.600;8.034;2022-12-17T06:00:56;-6.60;99.90
32877;DHT22;19226;51.600;8.034;2022-12-17T06:03:47;-6.60;99.90
32877;DHT22;19226;51.600;8.034;2022-12-17T06:06:39;-6.60;99.90
32877;DHT22;19226;51.600;8.034;2022-12-17T06:09:26;-6.60;99.90
32877;DHT22;19226;51.600;8.034;2022-12-17T06:12:15;-6.60;99.90
32877;DHT22;19226;51.600;8.034;2022-12-17T06:15:19;-6.60;99.90
32877;DHT22;19226;51.600;8.034;2022-12-17T06:18:09;-6.60;99.90
32877;DHT22;19226;51.600;8.034;2022-12-17T06:20:53;-6.60;99.90
32877;DHT22;19226;51.600;8.034;2022-12-17T06:23:39;-6.60;99.90
32877;DHT22;19226;51.600;8.034;2022-12-17T06:26:26;-6.50;99.90
32877;DHT22;19226;51.600;8.034;2022-12-17T06:29:20;-6.50;99.90
32877;DHT22;19226;51.600;8.034;2022-12-17T06:32:04;-6.50;99.90
32877;DHT22;19226;51.600;8.034;2022-12-17T06:34:56;-6.50;99.90
32877;DHT22;19226;51.600;8.034;2022-12-17T06:37:45;-6.50;99.90
32877;DHT22;19226;51.600;8.034;2022-12-17T06:40:30;-6.50;99.90
32877;DHT22;19226;51.600;8.034;2022-12-17T06:43:15;-6.50;99.90
32877;DHT22;19226;51.600;8.034;2022-12-17T06:46:03;-6.50;99.90
32877;DHT22;19226;51.600;8.034;2022-12-17T06:48:47;-6.50;99.90
32877;DHT22;19226;51.600;8.034;2022-12-17T06:51:33;-6.50;99.90
32877;DHT22;19226;51.600;8.034;2022-12-17T06:54:19;-6.50;99.90
32877;DHT22;19226;51.600;8.034;2022-12-17T06:57:07;-6.50;99.90
32877;DHT22;19226;51.600;8.034;2022-12-17T06:59:54;-6.50;99.90
32877;DHT22;19226;51.600;8.034;2022-12-17T07:02:38;-6.60;99.90
32877;DHT22;19226;51.600;8.034;2022-12-17T07:05:23;-6.60;99.90
32877;DHT22;19226;51.600;8.034;2022-12-17T07:08:12;-6.60;99.90
32877;DHT22;19226;51.600;8.034;2022-12-17T07:10:59;-6.60;99.90
32877;DHT22;19226;51.600;8.034;2022-12-17T07:13:44;-6.50;99.90
32877;DHT22;19226;51.600;8.034;2022-12-17T07:16:28;-6.60;99.90
32877;DHT22;19226;51.600;8.034;2022-12-17T07:19:14;-6.50;99.90
32877;DHT22;19226;51.600;8.034;2022-12-17T07:21:59;-6.50;99.90
32877;DHT22;19226;51.600;8.034;2022-12-17T07:24:44;-6.50;99.90
32877;DHT22;19226;51.600;8.034;2022-12-17T07:27:28;-6.60;99.90
32877;DHT22;19226;51.600;8.034;2022-12-17T07:30:13;-6.60;99.90
32877;DHT22;19226;51.600;8.034;2022-12-17T07:33:04;-6.60;99.90
32877;DHT22;19226;51.600;8.034;2022-12-17T07:35:54;-6.60;99.90
32877;DHT22;19226;51.600;8.034;2022-12-17T07:38:40;-6.60;99.90
32877;DHT22;19226;51.600;8.034;2022-12-17T07:41:28;-6.60;99.90
32877;DHT22;19226;51.600;8.034;2022-12-17T07:44:13;-6.60;99.90
32877;DHT22;19226;51.600;8.034;2022-12-17T07:46:58;-6.60;99.90
32877;DHT22;19226;51.600;8.034;2022-12-17T07:49:46;-6.70;99.90
32877;DHT22;19226;51.600;8.034;2022-12-17T07:52:34;-6.70;99.90
32877;DHT22;19226;51.600;8.034;2022-12-17T07:55:44;-6.70;99.90
32877;DHT22;19226;51.600;8.034;2022-12-17T07:58:35;-6.70;99.90
32877;DHT22;19226;51.600;8.034;2022-12-17T08:01:21;-6.80;99.90
32877;DHT22;19226;51.600;8.034;2022-12-17T08:04:09;-6.70;99.90
32877;DHT22;19226;51.600;8.034;2022-12-17T08:06:55;-6.70;99.90
32877;DHT22;19226;51.600;8.034;2022-12-17T08:09:41;-6.80;99.90
32877;DHT22;19226;51.600;8.034;2022-12-17T08:12:54;-6.80;99.90
32877;DHT22;19226;51.600;8.034;2022-12-17T08:15:41;-6.80;99.90
32877;DHT22;19226;51.600;8.034;2022-12-17T08:18:37;-6.80;99.90
32877;DHT22;19226;51.600;8.034;2022-12-17T08:21:23;-6.70;99.90
32877;DHT22;19226;51.600;8.034;2022-12-17T08:24:10;-6.70;99.90
32877;DHT22;19226;51.600;8.034;2022-12-17T08:26:55;-6.70;99.90
32877;DHT22;19226;51.600;8.034;2022-12-17T08:30:06;-6.70;99.90
32877;DHT22;19226;51.600;8.034;2022-12-17T08:33:16;-6.70;99.90
32877;DHT22;19226;51.600;8.034;2022-12-17T08:36:00;-6.70;99.90
32877;DHT22;19226;51.600;8.034;2022-12-17T08:38:47;-6.70;99.90
32877;DHT22;19226;51.600;8.034;2022-12-17T08:41:35;-6.70;99.90
32877;DHT22;19226;51.600;8.034;2022-12-17T08:44:21;-6.70;99.90
32877;DHT22;19226;51.600;8.034;2022-12-17T08:47:14;-6.70;99.90
32877;DHT22;19226;51.600;8.034;2022-12-17T08:54:12;-6.70;99.90
32877;DHT22;19226;51.600;8.034;2022-12-17T08:57:05;-6.70;99.90
32877;DHT22;19226;51.600;8.034;2022-12-17T08:59:53;-6.70;99.90
32877;DHT22;19226;51.600;8.034;2022-12-17T09:02:41;-6.80;99.90
32877;DHT22;19226;51.600;8.034;2022-12-17T09:05:27;-6.70;99.90
32877;DHT22;19226;51.600;8.034;2022-12-17T09:08:28;-6.70;99.90
32877;DHT22;19226;51.600;8.034;2022-12-17T09:11:12;-6.70;99.90
32877;DHT22;19226;51.600;8.034;2022-12-17T09:13:57;-6.70;99.90
32877;DHT22;19226;51.600;8.034;2022-12-17T09:17:26;-6.70;99.90
32877;DHT22;19226;51.600;8.034;2022-12-17T09:20:14;-6.60;99.90
32877;DHT22;19226;51.600;8.034;2022-12-17T09:23:03;-6.60;99.90
32877;DHT22;19226;51.600;8.034;2022-12-17T09:25:51;-6.50;99.90
32877;DHT22;19226;51.600;8.034;2022-12-17T09:28:41;-6.50;99.90
32877;DHT22;19226;51.600;8.034;2022-12-17T09:31:25;-6.50;99.90
32877;DHT22;19226;51.600;8.034;2022-12-17T09:34:11;-6.40;99.90
32877;DHT22;19226;51.600;8.034;2022-12-17T09:36:57;-6.40;99.90
32877;DHT22;19226;51.600;8.034;2022-12-17T09:39:41;-6.40;99.90
32877;DHT22;19226;51.600;8.034;2022-12-17T09:45:45;-6.30;99.90
32877;DHT22;19226;51.600;8.034;2022-12-17T09:48:40;-6.40;99.90
32877;DHT22;19226;51.600;8.034;2022-12-17T09:51:28;-6.20;99.90
32877;DHT22;19226;51.600;8.034;2022-12-17T09:54:25;-6.20;99.90
32877;DHT22;19226;51.600;8.034;2022-12-17T10:00:42;-6.10;99.90
32877;DHT22;19226;51.600;8.034;2022-12-17T10:03:26;-6.00;99.90
32877;DHT22;19226;51.600;8.034;2022-12-17T10:06:19;-5.90;99.90
32877;DHT22;19226;51.600;8.034;2022-12-17T10:09:14;-5.80;99.90
32877;DHT22;19226;51.600;8.034;2022-12-17T10:12:11;-5.80;99.90
32877;DHT22;19226;51.600;8.034;2022-12-17T10:15:06;-5.70;99.90
32877;DHT22;19226;51.600;8.034;2022-12-17T10:17:53;-5.60;99.90
32877;DHT22;19226;51.600;8.034;2022-12-17T10:24:08;-5.40;99.90
32877;DHT22;19226;51.600;8.034;2022-12-17T10:26:54;-5.40;99.90
32877;DHT22;19226;51.600;8.034;2022-12-17T10:32:52;-5.30;99.90
32877;DHT22;19226;51.600;8.034;2022-12-17T10:35:44;-5.20;99.90
32877;DHT22;19226;51.600;8.034;2022-12-17T10:38:32;-5.20;99.90
32877;DHT22;19226;51.600;8.034;2022-12-17T10:47:12;-5.00;99.90
32877;DHT22;19226;51.600;8.034;2022-12-17T10:50:22;-4.90;99.90
32877;DHT22;19226;51.600;8.034;2022-12-17T10:57:04;-4.80;99.90
32877;DHT22;19226;51.600;8.034;2022-12-17T10:59:52;-4.70;99.90
32877;DHT22;19226;51.600;8.034;2022-12-17T11:02:38;-4.60;99.90
32877;DHT22;19226;51.600;8.034;2022-12-17T11:05:26;-4.50;99.90
32877;DHT22;19226;51.600;8.034;2022-12-17T11:08:12;-4.30;99.90
32877;DHT22;19226;51.600;8.034;2022-12-17T11:11:01;-4.20;99.90
32877;DHT22;19226;51.600;8.034;2022-12-17T11:13:49;-4.30;99.90
32877;DHT22;19226;51.600;8.034;2022-12-17T11:16:58;-4.20;99.90
32877;DHT22;19226;51.600;8.034;2022-12-17T11:22:46;-4.20;99.90
32877;DHT22;19226;51.600;8.034;2022-12-17T11:28:34;-4.00;99.90
32877;DHT22;19226;51.600;8.034;2022-12-17T11:34:14;-3.90;99.90
32877;DHT22;19226;51.600;8.034;2022-12-17T11:43:17;-3.70;99.90
32877;DHT22;19226;51.600;8.034;2022-12-17T11:46:26;-3.80;99.90
32877;DHT22;19226;51.600;8.034;2022-12-17T11:52:03;-3.70;99.90
32877;DHT22;19226;51.600;8.034;2022-12-17T12:00:38;-3.80;99.90
32877;DHT22;19226;51.600;8.034;2022-12-17T12:09:21;-3.80;99.90
32877;DHT22;19226;51.600;8.034;2022-12-17T12:21:32;-3.80;99.90
32877;DHT22;19226;51.600;8.034;2022-12-17T12:27:11;-3.70;99.90
32877;DHT22;19226;51.600;8.034;2022-12-17T12:30:04;-3.80;99.90
32877;DHT22;19226;51.600;8.034;2022-12-17T12:35:54;-3.70;99.90
32877;DHT22;19226;51.600;8.034;2022-12-17T12:38:42;-3.70;99.90
32877;DHT22;19226;51.600;8.034;2022-12-17T12:47:16;-3.90;99.90
32877;DHT22;19226;51.600;8.034;2022-12-17T12:53:17;-4.00;99.90
32877;DHT22;19226;51.600;8.034;2022-12-17T12:56:02;-3.90;99.90
32877;DHT22;19226;51.600;8.034;2022-12-17T12:58:49;-3.80;99.90
32877;DHT22;19226;51.600;8.034;2022-12-17T13:01:46;-3.80;99.90
32877;DHT22;19226;51.600;8.034;2022-12-17T13:04:32;-3.70;99.90
32877;DHT22;19226;51.600;8.034;2022-12-17T13:07:27;-3.60;99.90
32877;DHT22;19226;51.600;8.034;2022-12-17T13:09:55;-3.50;99.90
32877;DHT22;19226;51.600;8.034;2022-12-17T13:12:23;-3.50;99.90
32877;DHT22;19226;51.600;8.034;2022-12-17T13:17:27;-3.60;99.90
32877;DHT22;19226;51.600;8.034;2022-12-17T13:19:59;-3.60;99.90
32877;DHT22;19226;51.600;8.034;2022-12-17T13:22:28;-3.60;99.90
32877;DHT22;19226;51.600;8.034;2022-12-17T13:27:40;-3.70;99.90
32877;DHT22;19226;51.600;8.034;2022-12-17T13:30:17;-3.70;99.90
32877;DHT22;19226;51.600;8.034;2022-12-17T13:32:49;-3.80;99.90
32877;DHT22;19226;51.600;8.034;2022-12-17T13:40:47;-3.80;99.90
32877;DHT22;19226;51.600;8.034;2022-12-17T13:43:20;-3.90;99.90
32877;DHT22;19226;51.600;8.034;2022-12-17T13:45:50;-4.00;99.90
32877;DHT22;19226;51.600;8.034;2022-12-17T13:51:25;-3.90;99.90
32877;DHT22;19226;51.600;8.034;2022-12-17T13:56:53;-3.90;99.90
32877;DHT22;19226;51.600;8.034;2022-12-17T13:59:22;-3.80;99.90
32877;DHT22;19226;51.600;8.034;2022-12-17T14:01:49;-3.70;99.90
32877;DHT22;19226;51.600;8.034;2022-12-17T14:04:23;-3.70;99.90
32877;DHT22;19226;51.600;8.034;2022-12-17T14:06:49;-3.70;99.90
32877;DHT22;19226;51.600;8.034;2022-12-17T14:09:16;-3.60;99.90
32877;DHT22;19226;51.600;8.034;2022-12-17T14:11:44;-3.80;99.90
32877;DHT22;19226;51.600;8.034;2022-12-17T14:14:30;-4.20;99.90
32877;DHT22;19226;51.600;8.034;2022-12-17T14:19:43;-4.10;99.90
32877;DHT22;19226;51.600;8.034;2022-12-17T14:22:53;-4.00;99.90
32877;DHT22;19226;51.600;8.034;2022-12-17T14:25:00;-4.00;99.90
32877;DHT22;19226;51.600;8.034;2022-12-17T14:27:34;-3.90;99.90
32877;DHT22;19226;51.600;8.034;2022-12-17T14:30:00;-3.80;99.90
32877;DHT22;19226;51.600;8.034;2022-12-17T14:32:31;-3.90;99.90
32877;DHT22;19226;51.600;8.034;2022-12-17T14:34:57;-3.90;99.90
32877;DHT22;19226;51.600;8.034;2022-12-17T14:37:26;-3.90;99.90
32877;DHT22;19226;51.600;8.034;2022-12-17T14:39:54;-3.90;99.90
32877;DHT22;19226;51.600;8.034;2022-12-17T14:42:21;-3.90;99.90
32877;DHT22;19226;51.600;8.034;2022-12-17T14:45:01;-3.90;99.90
32877;DHT22;19226;51.600;8.034;2022-12-17T14:47:30;-3.90;99.90
32877;DHT22;19226;51.600;8.034;2022-12-17T14:49:58;-4.00;99.90
32877;DHT22;19226;51.600;8.034;2022-12-17T14:52:41;-4.00;99.90
32877;DHT22;19226;51.600;8.034;2022-12-17T14:57:50;-4.10;99.90
32877;DHT22;19226;51.600;8.034;2022-12-17T15:00:17;-4.20;99.90
32877;DHT22;19226;51.600;8.034;2022-12-17T15:02:49;-4.20;99.90
32877;DHT22;19226;51.600;8.034;2022-12-17T15:05:15;-4.30;99.90
32877;DHT22;19226;51.600;8.034;2022-12-17T15:07:42;-4.40;99.90
32877;DHT22;19226;51.600;8.034;2022-12-17T15:10:09;-4.50;99.90
32877;DHT22;19226;51.600;8.034;2022-12-17T15:12:36;-4.60;99.90
32877;DHT22;19226;51.600;8.034;2022-12-17T15:15:02;-4.60;99.90
32877;DHT22;19226;51.600;8.034;2022-12-17T15:17:29;-4.60;99.90
32877;DHT22;19226;51.600;8.034;2022-12-17T15:19:55;-4.60;99.90
32877;DHT22;19226;51.600;8.034;2022-12-17T15:22:21;-4.60;99.90
32877;DHT22;19226;51.600;8.034;2022-12-17T15:24:47;-4.60;99.90
32877;DHT22;19226;51.600;8.034;2022-12-17T15:27:14;-4.60;99.90
32877;DHT22;19226;51.600;8.034;2022-12-17T15:29:41;-4.70;99.90
32877;DHT22;19226;51.600;8.034;2022-12-17T15:32:11;-4.80;99.90
32877;DHT22;19226;51.600;8.034;2022-12-17T15:34:37;-4.90;99.90
32877;DHT22;19226;51.600;8.034;2022-12-17T15:37:03;-4.90;99.90
32877;DHT22;19226;51.600;8.034;2022-12-17T15:39:29;-4.90;99.90
32877;DHT22;19226;51.600;8.034;2022-12-17T15:41:56;-5.00;99.90
32877;DHT22;19226;51.600;8.034;2022-12-17T15:44:51;-5.10;99.90
32877;DHT22;19226;51.600;8.034;2022-12-17T15:47:17;-5.10;99.90
32877;DHT22;19226;51.600;8.034;2022-12-17T15:49:43;-5.20;99.90
32877;DHT22;19226;51.600;8.034;2022-12-17T15:52:10;-5.20;99.90
32877;DHT22;19226;51.600;8.034;2022-12-17T15:54:58;-5.20;99.90
32877;DHT22;19226;51.600;8.034;2022-12-17T15:57:33;-5.20;99.90
32877;DHT22;19226;51.600;8.034;2022-12-17T15:59:59;-5.20;99.90
32877;DHT22;19226;51.600;8.034;2022-12-17T16:02:29;-5.20;99.90
32877;DHT22;19226;51.600;8.034;2022-12-17T16:05:03;-5.20;99.90
32877;DHT22;19226;51.600;8.034;2022-12-17T16:07:29;-5.20;99.90
32877;DHT22;19226;51.600;8.034;2022-12-17T16:09:57;-5.20;99.90
32877;DHT22;19226;51.600;8.034;2022-12-17T16:12:25;-5.20;99.90
32877;DHT22;19226;51.600;8.034;2022-12-17T16:14:51;-5.20;99.90
32877;DHT22;19226;51.600;8.034;2022-12-17T16:17:17;-5.20;99.90
32877;DHT22;19226;51.600;8.034;2022-12-17T16:19:50;-5.30;99.90
32877;DHT22;19226;51.600;8.034;2022-12-17T16:22:16;-5.30;99.90
32877;DHT22;19226;51.600;8.034;2022-12-17T16:24:42;-5.30;99.90
32877;DHT22;19226;51.600;8.034;2022-12-17T16:27:08;-5.30;99.90
32877;DHT22;19226;51.600;8.034;2022-12-17T16:29:38;-5.40;99.90
32877;DHT22;19226;51.600;8.034;2022-12-17T16:32:05;-5.40;99.90
32877;DHT22;19226;51.600;8.034;2022-12-17T16:34:32;-5.50;99.90
32877;DHT22;19226;51.600;8.034;2022-12-17T16:36:58;-5.40;99.90
32877;DHT22;19226;51.600;8.034;2022-12-17T16:43:05;-5.30;99.90
32877;DHT22;19226;51.600;8.034;2022-12-17T16:46:02;-5.40;99.90
32877;DHT22;19226;51.600;8.034;2022-12-17T16:48:48;-5.40;99.90
32877;DHT22;19226;51.600;8.034;2022-12-17T16:51:17;-5.40;99.90
32877;DHT22;19226;51.600;8.034;2022-12-17T16:56:29;-5.50;99.90
32877;DHT22;19226;51.600;8.034;2022-12-17T17:02:12;-5.50;99.90
32877;DHT22;19226;51.600;8.034;2022-12-17T17:04:44;-5.50;99.90
32877;DHT22;19226;51.600;8.034;2022-12-17T17:07:16;-5.50;99.90
32877;DHT22;19226;51.600;8.034;2022-12-17T17:09:48;-5.60;99.90
32877;DHT22;19226;51.600;8.034;2022-12-17T17:12:23;-5.60;99.90
32877;DHT22;19226;51.600;8.034;2022-12-17T17:15:13;-5.60;99.90
32877;DHT22;19226;51.600;8.034;2022-12-17T17:17:40;-5.60;99.90
32877;DHT22;19226;51.600;8.034;2022-12-17T17:20:10;-5.60;99.90
32877;DHT22;19226;51.600;8.034;2022-12-17T17:22:37;-5.60;99.90
32877;DHT22;19226;51.600;8.034;2022-12-17T17:28:39;-5.60;99.90
32877;DHT22;19226;51.600;8.034;2022-12-17T17:31:06;-5.60;99.90
32877;DHT22;19226;51.600;8.034;2022-12-17T17:33:48;-5.60;99.90
32877;DHT22;19226;51.600;8.034;2022-12-17T17:39:51;-5.70;99.90
32877;DHT22;19226;51.600;8.034;2022-12-17T17:43:29;-5.70;99.90
32877;DHT22;19226;51.600;8.034;2022-12-17T17:46:39;-5.80;99.90
32877;DHT22;19226;51.600;8.034;2022-12-17T17:49:52;-5.80;99.90
32877;DHT22;19226;51.600;8.034;2022-12-17T17:52:19;-5.80;99.90
32877;DHT22;19226;51.600;8.034;2022-12-17T17:57:32;-5.90;99.90
32877;DHT22;19226;51.600;8.034;2022-12-17T18:03:12;-6.00;99.90
32877;DHT22;19226;51.600;8.034;2022-12-17T18:08:23;-6.20;99.90
32877;DHT22;19226;51.600;8.034;2022-12-17T18:10:54;-6.30;99.90
32877;DHT22;19226;51.600;8.034;2022-12-17T18:13:21;-6.30;99.90
32877;DHT22;19226;51.600;8.034;2022-12-17T18:16:06;-6.40;99.90
32877;DHT22;19226;51.600;8.034;2022-12-17T18:21:39;-6.50;99.90
32877;DHT22;19226;51.600;8.034;2022-12-17T18:26:53;-6.50;99.90
32877;DHT22;19226;51.600;8.034;2022-12-17T18:29:23;-6.50;99.90
32877;DHT22;19226;51.600;8.034;2022-12-17T18:31:51;-6.50;99.90
32877;DHT22;19226;51.600;8.034;2022-12-17T18:34:23;-6.50;99.90
32877;DHT22;19226;51.600;8.034;2022-12-17T18:36:52;-6.50;99.90
32877;DHT22;19226;51.600;8.034;2022-12-17T18:39:32;-6.50;99.90
32877;DHT22;19226;51.600;8.034;2022-12-17T18:45:04;-6.70;99.90
32877;DHT22;19226;51.600;8.034;2022-12-17T18:47:31;-6.70;99.90
32877;DHT22;19226;51.600;8.034;2022-12-17T18:49:57;-6.70;99.90
32877;DHT22;19226;51.600;8.034;2022-12-17T18:52:24;-6.80;99.90
32877;DHT22;19226;51.600;8.034;2022-12-17T18:54:50;-6.80;99.90
32877;DHT22;19226;51.600;8.034;2022-12-17T18:57:16;-6.80;99.90
32877;DHT22;19226;51.600;8.034;2022-12-17T18:59:44;-6.90;99.90
32877;DHT22;19226;51.600;8.034;2022-12-17T19:02:11;-6.90;99.90
32877;DHT22;19226;51.600;8.034;2022-12-17T19:04:39;-6.90;99.90
32877;DHT22;19226;51.600;8.034;2022-12-17T19:07:05;-7.00;99.90
32877;DHT22;19226;51.600;8.034;2022-12-17T19:12:19;-6.90;99.90
32877;DHT22;19226;51.600;8.034;2022-12-17T19:14:46;-6.90;99.90
32877;DHT22;19226;51.600;8.034;2022-12-17T19:17:12;-6.90;99.90
32877;DHT22;19226;51.600;8.034;2022-12-17T19:19:42;-6.90;99.90
32877;DHT22;19226;51.600;8.034;2022-12-17T19:25:15;-7.00;99.90
32877;DHT22;19226;51.600;8.034;2022-12-17T19:27:48;-7.00;99.90
32877;DHT22;19226;51.600;8.034;2022-12-17T19:30:33;-7.00;99.90
32877;DHT22;19226;51.600;8.034;2022-12-17T19:33:14;-7.00;99.90
32877;DHT22;19226;51.600;8.034;2022-12-17T19:35:41;-7.10;99.90
32877;DHT22;19226;51.600;8.034;2022-12-17T19:38:07;-7.20;99.90
32877;DHT22;19226;51.600;8.034;2022-12-17T19:40:33;-7.20;99.90
32877;DHT22;19226;51.600;8.034;2022-12-17T19:43:02;-7.30;99.90
32877;DHT22;19226;51.600;8.034;2022-12-17T19:45:29;-7.20;99.90
32877;DHT22;19226;51.600;8.034;2022-12-17T19:47:56;-7.40;99.90
32877;DHT22;19226;51.600;8.034;2022-12-17T19:50:22;-7.40;99.90
32877;DHT22;19226;51.600;8.034;2022-12-17T19:52:48;-7.40;99.90
32877;DHT22;19226;51.600;8.034;2022-12-17T19:55:17;-7.40;99.90
32877;DHT22;19226;51.600;8.034;2022-12-17T19:57:51;-7.40;99.90
32877;DHT22;19226;51.600;8.034;2022-12-17T20:00:20;-7.30;99.90
32877;DHT22;19226;51.600;8.034;2022-12-17T20:02:46;-7.40;99.90
32877;DHT22;19226;51.600;8.034;2022-12-17T20:05:12;-7.40;99.90
32877;DHT22;19226;51.600;8.034;2022-12-17T20:07:38;-7.40;99.90
32877;DHT22;19226;51.600;8.034;2022-12-17T20:10:05;-7.40;99.90